sensor_id;sensor_type;location;lat;lon;timestamp;P1;durP1;ratioP1;P2;durP2;ratioP2
70796;SDS011;63842;52.144;5.360;2024-01-27T00:00:01;11.50;;;2.90;;
70796;SDS011;63842;52.144;5.360;2024-01-27T00:02:34;10.68;;;2.83;;
70796;SDS011;63842;52.144;5.360;2024-01-27T00:05:01;12.55;;;2.90;;
70796;SDS011;63842;52.144;5.360;2024-01-27T00:07:29;15.35;;;2.90;;
70796;SDS011;63842;52.144;5.360;2024-01-27T00:09:57;12.88;;;2.83;;
70796;SDS011;63842;52.144;5.360;2024-01-27T00:12:25;10.10;;;2.85;;
70796;SDS011;63842;52.144;5.360;2024-01-27T00:14:53;10.82;;;3.10;;
70796;SDS011;63842;52.144;5.360;2024-01-27T00:17:20;11.45;;;2.90;;
70796;SDS011;63842;52.144;5.360;2024-01-27T00:19:52;10.35;;;2.80;;
70796;SDS011;63842;52.144;5.360;2024-01-27T00:22:20;12.20;;;2.72;;
70796;SDS011;63842;52.144;5.360;2024-01-27T00:24:47;11.98;;;2.60;;
70796;SDS011;63842;52.144;5.360;2024-01-27T00:27:15;14.55;;;3.28;;
70796;SDS011;63842;52.144;5.360;2024-01-27T00:29:43;14.07;;;2.92;;
70796;SDS011;63842;52.144;5.360;2024-01-27T00:32:10;12.90;;;2.63;;
70796;SDS011;63842;52.144;5.360;2024-01-27T00:34:38;14.27;;;3.30;;
70796;SDS011;63842;52.144;5.360;2024-01-27T00:37:05;13.20;;;2.80;;
70796;SDS011;63842;52.144;5.360;2024-01-27T00:39:32;13.27;;;3.30;;
70796;SDS011;63842;52.144;5.360;2024-01-27T00:42:00;11.40;;;2.83;;
70796;SDS011;63842;52.144;5.360;2024-01-27T00:44:27;8.57;;;2.30;;
70796;SDS011;63842;52.144;5.360;2024-01-27T00:46:55;11.88;;;3.10;;
70796;SDS011;63842;52.144;5.360;2024-01-27T00:49:22;9.73;;;2.88;;
70796;SDS011;63842;52.144;5.360;2024-01-27T00:51:49;13.43;;;2.90;;
70796;SDS011;63842;52.144;5.360;2024-01-27T00:54:17;10.82;;;2.45;;
70796;SDS011;63842;52.144;5.360;2024-01-27T00:56:44;14.10;;;2.92;;
70796;SDS011;63842;52.144;5.360;2024-01-27T00:59:12;16.30;;;2.90;;
70796;SDS011;63842;52.144;5.360;2024-01-27T01:01:39;11.77;;;2.60;;
70796;SDS011;63842;52.144;5.360;2024-01-27T01:04:07;13.95;;;2.95;;
70796;SDS011;63842;52.144;5.360;2024-01-27T01:06:34;10.07;;;2.45;;
70796;SDS011;63842;52.144;5.360;2024-01-27T01:09:02;11.07;;;2.67;;
70796;SDS011;63842;52.144;5.360;2024-01-27T01:11:29;11.98;;;2.60;;
70796;SDS011;63842;52.144;5.360;2024-01-27T01:13:57;14.70;;;2.95;;
70796;SDS011;63842;52.144;5.360;2024-01-27T01:16:24;12.18;;;2.60;;
70796;SDS011;63842;52.144;5.360;2024-01-27T01:18:51;10.90;;;2.53;;
70796;SDS011;63842;52.144;5.360;2024-01-27T01:21:19;12.50;;;3.00;;
70796;SDS011;63842;52.144;5.360;2024-01-27T01:23:47;12.52;;;2.83;;
70796;SDS011;63842;52.144;5.360;2024-01-27T01:26:14;9.48;;;2.25;;
70796;SDS011;63842;52.144;5.360;2024-01-27T01:28:41;11.60;;;2.60;;
70796;SDS011;63842;52.144;5.360;2024-01-27T01:31:09;11.43;;;2.85;;
70796;SDS011;63842;52.144;5.360;2024-01-27T01:33:37;8.63;;;2.20;;
70796;SDS011;63842;52.144;5.360;2024-01-27T01:36:05;13.05;;;2.78;;
70796;SDS011;63842;52.144;5.360;2024-01-27T01:38:32;9.43;;;2.30;;
70796;SDS011;63842;52.144;5.360;2024-01-27T01:41:00;9.23;;;2.28;;
70796;SDS011;63842;52.144;5.360;2024-01-27T01:43:27;12.52;;;2.45;;
70796;SDS011;63842;52.144;5.360;2024-01-27T01:45:54;12.18;;;2.10;;
70796;SDS011;63842;52.144;5.360;2024-01-27T01:48:22;9.60;;;2.33;;
70796;SDS011;63842;52.144;5.360;2024-01-27T01:50:49;14.98;;;2.92;;
70796;SDS011;63842;52.144;5.360;2024-01-27T01:53:18;15.00;;;2.72;;
70796;SDS011;63842;52.144;5.360;2024-01-27T01:55:45;10.30;;;2.50;;
70796;SDS011;63842;52.144;5.360;2024-01-27T01:58:13;12.15;;;2.35;;
70796;SDS011;63842;52.144;5.360;2024-01-27T02:00:40;16.88;;;3.47;;
70796;SDS011;63842;52.144;5.360;2024-01-27T02:03:12;8.52;;;2.00;;
70796;SDS011;63842;52.144;5.360;2024-01-27T02:05:39;11.15;;;2.38;;
70796;SDS011;63842;52.144;5.360;2024-01-27T02:08:07;16.08;;;2.60;;
70796;SDS011;63842;52.144;5.360;2024-01-27T02:10:35;11.68;;;1.90;;
70796;SDS011;63842;52.144;5.360;2024-01-27T02:13:04;10.93;;;2.78;;
70796;SDS011;63842;52.144;5.360;2024-01-27T02:15:32;9.75;;;2.33;;
70796;SDS011;63842;52.144;5.360;2024-01-27T02:17:59;10.57;;;2.20;;
70796;SDS011;63842;52.144;5.360;2024-01-27T02:20:27;14.80;;;2.53;;
70796;SDS011;63842;52.144;5.360;2024-01-27T02:22:54;10.88;;;2.35;;
70796;SDS011;63842;52.144;5.360;2024-01-27T02:25:22;11.88;;;2.03;;
70796;SDS011;63842;52.144;5.360;2024-01-27T02:27:49;10.93;;;2.75;;
70796;SDS011;63842;52.144;5.360;2024-01-27T02:30:17;10.40;;;2.22;;
70796;SDS011;63842;52.144;5.360;2024-01-27T02:32:44;11.43;;;2.72;;
70796;SDS011;63842;52.144;5.360;2024-01-27T02:35:12;10.43;;;2.08;;
70796;SDS011;63842;52.144;5.360;2024-01-27T02:37:41;11.73;;;2.25;;
70796;SDS011;63842;52.144;5.360;2024-01-27T02:40:08;13.45;;;2.28;;
70796;SDS011;63842;52.144;5.360;2024-01-27T02:42:36;10.25;;;1.90;;
70796;SDS011;63842;52.144;5.360;2024-01-27T02:45:04;11.90;;;2.10;;
70796;SDS011;63842;52.144;5.360;2024-01-27T02:47:31;9.75;;;2.45;;
70796;SDS011;63842;52.144;5.360;2024-01-27T02:49:59;14.80;;;2.53;;
70796;SDS011;63842;52.144;5.360;2024-01-27T02:52:26;12.25;;;2.33;;
70796;SDS011;63842;52.144;5.360;2024-01-27T02:54:54;10.00;;;2.08;;
70796;SDS011;63842;52.144;5.360;2024-01-27T02:57:22;12.00;;;1.90;;
70796;SDS011;63842;52.144;5.360;2024-01-27T02:59:49;9.50;;;2.28;;
70796;SDS011;63842;52.144;5.360;2024-01-27T03:02:17;8.85;;;2.25;;
70796;SDS011;63842;52.144;5.360;2024-01-27T03:04:46;15.57;;;2.40;;
70796;SDS011;63842;52.144;5.360;2024-01-27T03:07:13;11.95;;;1.92;;
70796;SDS011;63842;52.144;5.360;2024-01-27T03:09:40;13.05;;;2.20;;
70796;SDS011;63842;52.144;5.360;2024-01-27T03:12:08;8.77;;;2.03;;
70796;SDS011;63842;52.144;5.360;2024-01-27T03:14:35;12.10;;;2.13;;
70796;SDS011;63842;52.144;5.360;2024-01-27T03:17:03;10.50;;;2.22;;
70796;SDS011;63842;52.144;5.360;2024-01-27T03:19:30;12.82;;;2.13;;
70796;SDS011;63842;52.144;5.360;2024-01-27T03:21:58;12.70;;;2.10;;
70796;SDS011;63842;52.144;5.360;2024-01-27T03:24:25;9.85;;;1.95;;
70796;SDS011;63842;52.144;5.360;2024-01-27T03:26:53;11.48;;;2.42;;
70796;SDS011;63842;52.144;5.360;2024-01-27T03:29:20;14.52;;;2.00;;
70796;SDS011;63842;52.144;5.360;2024-01-27T03:31:48;9.20;;;1.95;;
70796;SDS011;63842;52.144;5.360;2024-01-27T03:34:16;9.27;;;1.92;;
70796;SDS011;63842;52.144;5.360;2024-01-27T03:36:47;7.72;;;1.80;;
70796;SDS011;63842;52.144;5.360;2024-01-27T03:39:14;9.20;;;2.10;;
70796;SDS011;63842;52.144;5.360;2024-01-27T03:41:42;10.55;;;1.80;;
70796;SDS011;63842;52.144;5.360;2024-01-27T03:44:09;9.20;;;2.08;;
70796;SDS011;63842;52.144;5.360;2024-01-27T03:46:37;10.27;;;2.20;;
70796;SDS011;63842;52.144;5.360;2024-01-27T03:49:05;10.13;;;2.47;;
70796;SDS011;63842;52.144;5.360;2024-01-27T03:51:33;8.50;;;2.28;;
70796;SDS011;63842;52.144;5.360;2024-01-27T03:54:00;9.82;;;2.05;;
70796;SDS011;63842;52.144;5.360;2024-01-27T03:56:28;9.68;;;2.38;;
70796;SDS011;63842;52.144;5.360;2024-01-27T03:58:55;8.75;;;1.90;;
70796;SDS011;63842;52.144;5.360;2024-01-27T04:01:23;8.95;;;2.10;;
70796;SDS011;63842;52.144;5.360;2024-01-27T04:03:51;10.98;;;2.67;;
70796;SDS011;63842;52.144;5.360;2024-01-27T04:06:18;10.55;;;2.13;;
70796;SDS011;63842;52.144;5.360;2024-01-27T04:08:45;13.23;;;2.83;;
70796;SDS011;63842;52.144;5.360;2024-01-27T04:11:19;11.68;;;3.08;;
70796;SDS011;63842;52.144;5.360;2024-01-27T04:13:50;10.55;;;3.00;;
70796;SDS011;63842;52.144;5.360;2024-01-27T04:16:17;12.57;;;3.10;;
70796;SDS011;63842;52.144;5.360;2024-01-27T04:18:45;11.60;;;2.80;;
70796;SDS011;63842;52.144;5.360;2024-01-27T04:21:13;13.13;;;3.38;;
70796;SDS011;63842;52.144;5.360;2024-01-27T04:23:41;11.25;;;3.30;;
70796;SDS011;63842;52.144;5.360;2024-01-27T04:26:08;16.70;;;3.67;;
70796;SDS011;63842;52.144;5.360;2024-01-27T04:28:37;11.63;;;3.42;;
70796;SDS011;63842;52.144;5.360;2024-01-27T04:31:04;10.70;;;3.70;;
70796;SDS011;63842;52.144;5.360;2024-01-27T04:33:32;13.70;;;3.85;;
70796;SDS011;63842;52.144;5.360;2024-01-27T04:36:00;13.73;;;3.80;;
70796;SDS011;63842;52.144;5.360;2024-01-27T04:38:28;12.73;;;3.90;;
70796;SDS011;63842;52.144;5.360;2024-01-27T04:40:55;10.43;;;3.78;;
70796;SDS011;63842;52.144;5.360;2024-01-27T04:43:22;12.93;;;3.67;;
70796;SDS011;63842;52.144;5.360;2024-01-27T04:45:50;14.68;;;3.67;;
70796;SDS011;63842;52.144;5.360;2024-01-27T04:48:17;13.13;;;3.80;;
70796;SDS011;63842;52.144;5.360;2024-01-27T04:50:45;11.30;;;4.32;;
70796;SDS011;63842;52.144;5.360;2024-01-27T04:53:13;11.10;;;4.15;;
70796;SDS011;63842;52.144;5.360;2024-01-27T04:55:40;14.85;;;4.30;;
70796;SDS011;63842;52.144;5.360;2024-01-27T04:58:08;12.63;;;4.22;;
70796;SDS011;63842;52.144;5.360;2024-01-27T05:00:35;12.10;;;4.35;;
70796;SDS011;63842;52.144;5.360;2024-01-27T05:03:03;14.00;;;4.30;;
70796;SDS011;63842;52.144;5.360;2024-01-27T05:05:33;18.88;;;4.22;;
70796;SDS011;63842;52.144;5.360;2024-01-27T05:08:02;15.80;;;4.70;;
70796;SDS011;63842;52.144;5.360;2024-01-27T05:10:30;13.40;;;4.35;;
70796;SDS011;63842;52.144;5.360;2024-01-27T05:12:57;15.82;;;4.50;;
70796;SDS011;63842;52.144;5.360;2024-01-27T05:15:25;20.05;;;4.47;;
70796;SDS011;63842;52.144;5.360;2024-01-27T05:17:53;12.80;;;5.53;;
70796;SDS011;63842;52.144;5.360;2024-01-27T05:20:20;13.68;;;4.20;;
70796;SDS011;63842;52.144;5.360;2024-01-27T05:22:48;16.50;;;5.25;;
70796;SDS011;63842;52.144;5.360;2024-01-27T05:25:15;13.95;;;4.93;;
70796;SDS011;63842;52.144;5.360;2024-01-27T05:27:43;14.95;;;4.72;;
70796;SDS011;63842;52.144;5.360;2024-01-27T05:30:10;12.20;;;4.55;;
70796;SDS011;63842;52.144;5.360;2024-01-27T05:32:38;18.55;;;4.97;;
70796;SDS011;63842;52.144;5.360;2024-01-27T05:35:06;17.40;;;4.53;;
70796;SDS011;63842;52.144;5.360;2024-01-27T05:37:34;13.20;;;5.13;;
70796;SDS011;63842;52.144;5.360;2024-01-27T05:40:02;16.45;;;4.60;;
70796;SDS011;63842;52.144;5.360;2024-01-27T05:42:29;13.30;;;4.65;;
70796;SDS011;63842;52.144;5.360;2024-01-27T05:44:57;10.15;;;4.97;;
70796;SDS011;63842;52.144;5.360;2024-01-27T05:47:24;15.85;;;5.32;;
70796;SDS011;63842;52.144;5.360;2024-01-27T05:49:52;13.15;;;4.47;;
70796;SDS011;63842;52.144;5.360;2024-01-27T05:52:20;15.00;;;5.60;;
70796;SDS011;63842;52.144;5.360;2024-01-27T05:54:51;14.27;;;5.05;;
70796;SDS011;63842;52.144;5.360;2024-01-27T05:57:19;16.98;;;4.88;;
70796;SDS011;63842;52.144;5.360;2024-01-27T05:59:47;13.00;;;4.75;;
70796;SDS011;63842;52.144;5.360;2024-01-27T06:02:14;15.43;;;5.32;;
70796;SDS011;63842;52.144;5.360;2024-01-27T06:04:44;18.38;;;5.43;;
70796;SDS011;63842;52.144;5.360;2024-01-27T06:07:12;14.13;;;5.70;;
70796;SDS011;63842;52.144;5.360;2024-01-27T06:09:39;13.98;;;5.57;;
70796;SDS011;63842;52.144;5.360;2024-01-27T06:12:07;11.68;;;5.20;;
70796;SDS011;63842;52.144;5.360;2024-01-27T06:14:35;14.93;;;5.97;;
70796;SDS011;63842;52.144;5.360;2024-01-27T06:17:04;14.32;;;4.88;;
70796;SDS011;63842;52.144;5.360;2024-01-27T06:21:59;14.63;;;5.25;;
70796;SDS011;63842;52.144;5.360;2024-01-27T06:24:31;17.33;;;6.00;;
70796;SDS011;63842;52.144;5.360;2024-01-27T06:26:59;16.08;;;5.85;;
70796;SDS011;63842;52.144;5.360;2024-01-27T06:29:26;20.08;;;6.28;;
70796;SDS011;63842;52.144;5.360;2024-01-27T06:31:55;13.98;;;5.57;;
70796;SDS011;63842;52.144;5.360;2024-01-27T06:34:23;14.95;;;5.45;;
70796;SDS011;63842;52.144;5.360;2024-01-27T06:36:50;13.77;;;6.25;;
70796;SDS011;63842;52.144;5.360;2024-01-27T06:39:18;16.73;;;5.65;;
70796;SDS011;63842;52.144;5.360;2024-01-27T06:41:45;14.30;;;5.53;;
70796;SDS011;63842;52.144;5.360;2024-01-27T06:44:13;14.52;;;6.10;;
70796;SDS011;63842;52.144;5.360;2024-01-27T06:46:40;13.70;;;6.00;;
70796;SDS011;63842;52.144;5.360;2024-01-27T06:49:07;16.33;;;6.00;;
70796;SDS011;63842;52.144;5.360;2024-01-27T06:51:35;16.23;;;7.00;;
70796;SDS011;63842;52.144;5.360;2024-01-27T06:54:03;13.32;;;5.70;;
70796;SDS011;63842;52.144;5.360;2024-01-27T06:56:30;13.43;;;5.63;;
70796;SDS011;63842;52.144;5.360;2024-01-27T06:58:57;17.27;;;5.70;;
70796;SDS011;63842;52.144;5.360;2024-01-27T07:01:25;18.30;;;6.22;;
70796;SDS011;63842;52.144;5.360;2024-01-27T07:03:53;13.52;;;5.90;;
70796;SDS011;63842;52.144;5.360;2024-01-27T07:06:20;16.00;;;6.00;;
70796;SDS011;63842;52.144;5.360;2024-01-27T07:08:48;14.68;;;6.28;;
70796;SDS011;63842;52.144;5.360;2024-01-27T07:11:15;13.30;;;6.03;;
70796;SDS011;63842;52.144;5.360;2024-01-27T07:13:43;17.85;;;5.88;;
70796;SDS011;63842;52.144;5.360;2024-01-27T07:16:10;16.70;;;6.50;;
70796;SDS011;63842;52.144;5.360;2024-01-27T07:18:37;15.02;;;5.90;;
70796;SDS011;63842;52.144;5.360;2024-01-27T07:21:05;14.00;;;6.15;;
70796;SDS011;63842;52.144;5.360;2024-01-27T07:26:02;14.63;;;6.00;;
70796;SDS011;63842;52.144;5.360;2024-01-27T07:28:30;14.93;;;6.10;;
70796;SDS011;63842;52.144;5.360;2024-01-27T07:30:58;12.73;;;5.68;;
70796;SDS011;63842;52.144;5.360;2024-01-27T07:33:25;14.75;;;6.22;;
70796;SDS011;63842;52.144;5.360;2024-01-27T07:35:53;14.00;;;6.25;;
70796;SDS011;63842;52.144;5.360;2024-01-27T07:38:20;14.55;;;6.35;;
70796;SDS011;63842;52.144;5.360;2024-01-27T07:40:48;17.02;;;6.35;;
70796;SDS011;63842;52.144;5.360;2024-01-27T07:43:15;19.30;;;6.63;;
70796;SDS011;63842;52.144;5.360;2024-01-27T07:45:43;16.23;;;6.38;;
70796;SDS011;63842;52.144;5.360;2024-01-27T07:48:11;14.80;;;6.38;;
70796;SDS011;63842;52.144;5.360;2024-01-27T07:50:39;14.52;;;7.10;;
70796;SDS011;63842;52.144;5.360;2024-01-27T07:53:06;15.15;;;6.32;;
70796;SDS011;63842;52.144;5.360;2024-01-27T07:55:33;16.83;;;6.47;;
70796;SDS011;63842;52.144;5.360;2024-01-27T07:58:01;16.58;;;7.20;;
70796;SDS011;63842;52.144;5.360;2024-01-27T08:00:28;13.90;;;6.22;;
70796;SDS011;63842;52.144;5.360;2024-01-27T08:02:55;19.23;;;6.47;;
70796;SDS011;63842;52.144;5.360;2024-01-27T08:05:23;16.20;;;6.50;;
70796;SDS011;63842;52.144;5.360;2024-01-27T08:07:50;15.35;;;6.30;;
70796;SDS011;63842;52.144;5.360;2024-01-27T08:10:18;19.23;;;6.30;;
70796;SDS011;63842;52.144;5.360;2024-01-27T08:12:46;16.10;;;6.45;;
70796;SDS011;63842;52.144;5.360;2024-01-27T08:15:13;15.40;;;6.53;;
70796;SDS011;63842;52.144;5.360;2024-01-27T08:17:41;15.85;;;6.13;;
70796;SDS011;63842;52.144;5.360;2024-01-27T08:20:08;16.63;;;6.57;;
70796;SDS011;63842;52.144;5.360;2024-01-27T08:22:36;17.10;;;6.40;;
70796;SDS011;63842;52.144;5.360;2024-01-27T08:25:03;14.70;;;6.40;;
70796;SDS011;63842;52.144;5.360;2024-01-27T08:27:31;16.42;;;5.82;;
70796;SDS011;63842;52.144;5.360;2024-01-27T08:29:58;17.80;;;6.32;;
70796;SDS011;63842;52.144;5.360;2024-01-27T08:32:26;16.60;;;6.40;;
70796;SDS011;63842;52.144;5.360;2024-01-27T08:34:53;14.95;;;6.90;;
70796;SDS011;63842;52.144;5.360;2024-01-27T08:37:21;17.67;;;7.03;;
70796;SDS011;63842;52.144;5.360;2024-01-27T08:39:48;21.40;;;6.75;;
70796;SDS011;63842;52.144;5.360;2024-01-27T08:42:17;16.92;;;6.13;;
70796;SDS011;63842;52.144;5.360;2024-01-27T08:44:45;14.32;;;6.47;;
70796;SDS011;63842;52.144;5.360;2024-01-27T08:47:12;19.02;;;6.43;;
70796;SDS011;63842;52.144;5.360;2024-01-27T08:49:39;19.20;;;6.63;;
70796;SDS011;63842;52.144;5.360;2024-01-27T08:52:08;17.63;;;6.95;;
70796;SDS011;63842;52.144;5.360;2024-01-27T08:54:35;17.65;;;7.38;;
70796;SDS011;63842;52.144;5.360;2024-01-27T08:57:03;18.60;;;6.93;;
70796;SDS011;63842;52.144;5.360;2024-01-27T08:59:31;13.60;;;6.32;;
70796;SDS011;63842;52.144;5.360;2024-01-27T09:01:59;18.98;;;6.68;;
70796;SDS011;63842;52.144;5.360;2024-01-27T09:04:26;15.32;;;6.40;;
70796;SDS011;63842;52.144;5.360;2024-01-27T09:06:54;20.83;;;6.65;;
70796;SDS011;63842;52.144;5.360;2024-01-27T09:09:22;15.38;;;6.45;;
70796;SDS011;63842;52.144;5.360;2024-01-27T09:11:49;16.40;;;6.45;;
70796;SDS011;63842;52.144;5.360;2024-01-27T09:14:16;14.15;;;6.10;;
70796;SDS011;63842;52.144;5.360;2024-01-27T09:16:44;17.23;;;6.25;;
70796;SDS011;63842;52.144;5.360;2024-01-27T09:19:12;16.38;;;6.18;;
70796;SDS011;63842;52.144;5.360;2024-01-27T09:21:40;17.20;;;6.90;;
70796;SDS011;63842;52.144;5.360;2024-01-27T09:24:08;21.42;;;6.75;;
70796;SDS011;63842;52.144;5.360;2024-01-27T09:26:37;16.98;;;6.57;;
70796;SDS011;63842;52.144;5.360;2024-01-27T09:29:05;17.63;;;6.50;;
70796;SDS011;63842;52.144;5.360;2024-01-27T09:31:32;16.10;;;6.22;;
70796;SDS011;63842;52.144;5.360;2024-01-27T09:34:01;16.70;;;6.95;;
70796;SDS011;63842;52.144;5.360;2024-01-27T09:36:29;16.40;;;6.13;;
70796;SDS011;63842;52.144;5.360;2024-01-27T09:38:56;17.02;;;6.57;;
70796;SDS011;63842;52.144;5.360;2024-01-27T09:41:26;15.50;;;6.28;;
70796;SDS011;63842;52.144;5.360;2024-01-27T09:46:23;15.75;;;6.00;;
70796;SDS011;63842;52.144;5.360;2024-01-27T09:48:51;16.58;;;6.65;;
70796;SDS011;63842;52.144;5.360;2024-01-27T09:51:20;18.45;;;6.60;;
70796;SDS011;63842;52.144;5.360;2024-01-27T09:53:48;15.65;;;6.40;;
70796;SDS011;63842;52.144;5.360;2024-01-27T09:56:19;18.42;;;7.25;;
70796;SDS011;63842;52.144;5.360;2024-01-27T09:58:47;18.38;;;6.63;;
70796;SDS011;63842;52.144;5.360;2024-01-27T10:01:21;16.15;;;6.47;;
70796;SDS011;63842;52.144;5.360;2024-01-27T10:03:50;19.48;;;6.50;;
70796;SDS011;63842;52.144;5.360;2024-01-27T10:06:18;19.40;;;6.45;;
70796;SDS011;63842;52.144;5.360;2024-01-27T10:08:51;20.38;;;6.80;;
70796;SDS011;63842;52.144;5.360;2024-01-27T10:11:19;17.08;;;6.93;;
70796;SDS011;63842;52.144;5.360;2024-01-27T10:13:54;18.23;;;6.43;;
70796;SDS011;63842;52.144;5.360;2024-01-27T10:16:39;18.05;;;6.65;;
70796;SDS011;63842;52.144;5.360;2024-01-27T10:21:34;17.05;;;6.80;;
70796;SDS011;63842;52.144;5.360;2024-01-27T10:24:02;17.20;;;7.07;;
70796;SDS011;63842;52.144;5.360;2024-01-27T10:26:32;16.95;;;7.13;;
70796;SDS011;63842;52.144;5.360;2024-01-27T10:29:01;20.10;;;7.35;;
70796;SDS011;63842;52.144;5.360;2024-01-27T10:31:30;16.77;;;6.80;;
70796;SDS011;63842;52.144;5.360;2024-01-27T10:33:57;23.00;;;7.15;;
70796;SDS011;63842;52.144;5.360;2024-01-27T10:36:26;19.25;;;6.65;;
70796;SDS011;63842;52.144;5.360;2024-01-27T10:38:53;20.13;;;7.72;;
70796;SDS011;63842;52.144;5.360;2024-01-27T10:41:22;18.55;;;6.30;;
70796;SDS011;63842;52.144;5.360;2024-01-27T10:43:54;16.92;;;7.30;;
70796;SDS011;63842;52.144;5.360;2024-01-27T10:46:23;18.13;;;6.85;;
70796;SDS011;63842;52.144;5.360;2024-01-27T10:48:52;17.60;;;6.88;;
70796;SDS011;63842;52.144;5.360;2024-01-27T10:51:30;22.70;;;7.25;;
70796;SDS011;63842;52.144;5.360;2024-01-27T10:54:00;19.83;;;7.78;;
70796;SDS011;63842;52.144;5.360;2024-01-27T10:56:32;16.08;;;7.15;;
70796;SDS011;63842;52.144;5.360;2024-01-27T10:59:00;14.07;;;6.50;;
70796;SDS011;63842;52.144;5.360;2024-01-27T11:01:28;20.90;;;7.55;;
70796;SDS011;63842;52.144;5.360;2024-01-27T11:03:58;18.35;;;6.93;;
70796;SDS011;63842;52.144;5.360;2024-01-27T11:06:26;16.80;;;6.97;;
70796;SDS011;63842;52.144;5.360;2024-01-27T11:08:54;19.00;;;7.35;;
70796;SDS011;63842;52.144;5.360;2024-01-27T11:11:21;16.02;;;6.90;;
70796;SDS011;63842;52.144;5.360;2024-01-27T11:13:49;17.85;;;6.78;;
70796;SDS011;63842;52.144;5.360;2024-01-27T11:16:17;17.55;;;6.18;;
70796;SDS011;63842;52.144;5.360;2024-01-27T11:18:45;15.82;;;6.63;;
70796;SDS011;63842;52.144;5.360;2024-01-27T11:21:14;17.00;;;6.63;;
70796;SDS011;63842;52.144;5.360;2024-01-27T11:23:45;14.25;;;6.10;;
70796;SDS011;63842;52.144;5.360;2024-01-27T11:26:20;20.83;;;6.57;;
70796;SDS011;63842;52.144;5.360;2024-01-27T11:28:48;15.43;;;6.32;;
70796;SDS011;63842;52.144;5.360;2024-01-27T11:31:17;35.25;;;21.08;;
70796;SDS011;63842;52.144;5.360;2024-01-27T11:33:50;33.30;;;20.45;;
70796;SDS011;63842;52.144;5.360;2024-01-27T11:36:22;29.08;;;14.75;;
70796;SDS011;63842;52.144;5.360;2024-01-27T11:38:51;22.02;;;9.52;;
70796;SDS011;63842;52.144;5.360;2024-01-27T11:41:23;19.83;;;10.38;;
70796;SDS011;63842;52.144;5.360;2024-01-27T11:43:54;20.92;;;10.95;;
70796;SDS011;63842;52.144;5.360;2024-01-27T11:46:22;18.27;;;8.35;;
70796;SDS011;63842;52.144;5.360;2024-01-27T11:48:50;18.20;;;8.75;;
70796;SDS011;63842;52.144;5.360;2024-01-27T11:51:18;16.10;;;7.60;;
70796;SDS011;63842;52.144;5.360;2024-01-27T11:53:46;17.17;;;7.50;;
70796;SDS011;63842;52.144;5.360;2024-01-27T11:56:13;18.02;;;6.47;;
70796;SDS011;63842;52.144;5.360;2024-01-27T11:58:48;16.83;;;6.75;;
70796;SDS011;63842;52.144;5.360;2024-01-27T12:01:15;15.98;;;5.57;;
70796;SDS011;63842;52.144;5.360;2024-01-27T12:03:43;16.23;;;6.22;;
70796;SDS011;63842;52.144;5.360;2024-01-27T12:06:12;14.57;;;5.25;;
70796;SDS011;63842;52.144;5.360;2024-01-27T12:08:41;16.73;;;5.18;;
70796;SDS011;63842;52.144;5.360;2024-01-27T12:11:16;13.77;;;5.38;;
70796;SDS011;63842;52.144;5.360;2024-01-27T12:13:50;19.15;;;5.90;;
70796;SDS011;63842;52.144;5.360;2024-01-27T12:16:18;16.08;;;5.38;;
70796;SDS011;63842;52.144;5.360;2024-01-27T12:18:46;17.80;;;5.25;;
70796;SDS011;63842;52.144;5.360;2024-01-27T12:21:18;14.20;;;4.97;;
70796;SDS011;63842;52.144;5.360;2024-01-27T12:26:21;17.88;;;5.15;;
70796;SDS011;63842;52.144;5.360;2024-01-27T12:28:49;14.13;;;5.00;;
70796;SDS011;63842;52.144;5.360;2024-01-27T12:31:16;15.25;;;5.05;;
70796;SDS011;63842;52.144;5.360;2024-01-27T12:33:51;16.40;;;4.45;;
70796;SDS011;63842;52.144;5.360;2024-01-27T12:36:20;11.23;;;4.20;;
70796;SDS011;63842;52.144;5.360;2024-01-27T12:38:57;16.13;;;4.18;;
70796;SDS011;63842;52.144;5.360;2024-01-27T12:41:25;11.52;;;3.90;;
70796;SDS011;63842;52.144;5.360;2024-01-27T12:43:53;13.93;;;3.80;;
70796;SDS011;63842;52.144;5.360;2024-01-27T12:46:20;12.38;;;4.75;;
70796;SDS011;63842;52.144;5.360;2024-01-27T12:48:51;14.68;;;4.07;;
70796;SDS011;63842;52.144;5.360;2024-01-27T12:51:19;14.40;;;4.00;;
70796;SDS011;63842;52.144;5.360;2024-01-27T12:53:48;15.43;;;4.57;;
70796;SDS011;63842;52.144;5.360;2024-01-27T12:56:16;12.93;;;4.15;;
70796;SDS011;63842;52.144;5.360;2024-01-27T12:58:43;12.90;;;4.32;;
70796;SDS011;63842;52.144;5.360;2024-01-27T13:01:14;14.57;;;4.45;;
70796;SDS011;63842;52.144;5.360;2024-01-27T13:03:42;12.07;;;3.85;;
70796;SDS011;63842;52.144;5.360;2024-01-27T13:06:11;14.70;;;3.75;;
70796;SDS011;63842;52.144;5.360;2024-01-27T13:08:40;17.15;;;3.92;;
70796;SDS011;63842;52.144;5.360;2024-01-27T13:11:08;15.80;;;4.25;;
70796;SDS011;63842;52.144;5.360;2024-01-27T13:13:36;15.55;;;4.53;;
70796;SDS011;63842;52.144;5.360;2024-01-27T13:16:04;15.65;;;3.78;;
70796;SDS011;63842;52.144;5.360;2024-01-27T13:18:31;19.17;;;3.80;;
70796;SDS011;63842;52.144;5.360;2024-01-27T13:20:59;13.85;;;3.25;;
70796;SDS011;63842;52.144;5.360;2024-01-27T13:23:27;13.98;;;3.50;;
70796;SDS011;63842;52.144;5.360;2024-01-27T13:25:55;11.73;;;3.60;;
70796;SDS011;63842;52.144;5.360;2024-01-27T13:28:39;15.05;;;3.90;;
70796;SDS011;63842;52.144;5.360;2024-01-27T13:31:06;14.02;;;4.18;;
70796;SDS011;63842;52.144;5.360;2024-01-27T13:33:37;14.63;;;3.55;;
70796;SDS011;63842;52.144;5.360;2024-01-27T13:36:07;17.30;;;3.53;;
70796;SDS011;63842;52.144;5.360;2024-01-27T13:38:34;12.00;;;3.30;;
70796;SDS011;63842;52.144;5.360;2024-01-27T13:41:02;9.48;;;3.67;;
70796;SDS011;63842;52.144;5.360;2024-01-27T13:43:29;13.50;;;4.70;;
70796;SDS011;63842;52.144;5.360;2024-01-27T13:45:58;11.30;;;3.80;;
70796;SDS011;63842;52.144;5.360;2024-01-27T13:48:25;14.35;;;4.10;;
70796;SDS011;63842;52.144;5.360;2024-01-27T13:50:53;13.15;;;3.45;;
70796;SDS011;63842;52.144;5.360;2024-01-27T13:53:21;12.88;;;3.70;;
70796;SDS011;63842;52.144;5.360;2024-01-27T13:55:57;13.35;;;3.60;;
70796;SDS011;63842;52.144;5.360;2024-01-27T13:58:26;17.48;;;4.00;;
70796;SDS011;63842;52.144;5.360;2024-01-27T14:01:01;14.10;;;3.70;;
70796;SDS011;63842;52.144;5.360;2024-01-27T14:03:30;17.27;;;3.85;;
70796;SDS011;63842;52.144;5.360;2024-01-27T14:05:58;14.93;;;4.00;;
70796;SDS011;63842;52.144;5.360;2024-01-27T14:08:25;10.93;;;4.07;;
70796;SDS011;63842;52.144;5.360;2024-01-27T14:10:53;14.18;;;3.78;;
70796;SDS011;63842;52.144;5.360;2024-01-27T14:13:23;15.05;;;3.97;;
70796;SDS011;63842;52.144;5.360;2024-01-27T14:15:51;14.20;;;4.85;;
70796;SDS011;63842;52.144;5.360;2024-01-27T14:18:21;17.63;;;4.70;;
70796;SDS011;63842;52.144;5.360;2024-01-27T14:21:14;13.95;;;4.05;;
70796;SDS011;63842;52.144;5.360;2024-01-27T14:23:41;15.18;;;4.65;;
70796;SDS011;63842;52.144;5.360;2024-01-27T14:26:09;10.35;;;4.25;;
70796;SDS011;63842;52.144;5.360;2024-01-27T14:28:42;17.95;;;4.35;;
70796;SDS011;63842;52.144;5.360;2024-01-27T14:31:10;18.15;;;4.68;;
70796;SDS011;63842;52.144;5.360;2024-01-27T14:33:41;15.63;;;4.50;;
70796;SDS011;63842;52.144;5.360;2024-01-27T14:36:08;16.75;;;4.72;;
70796;SDS011;63842;52.144;5.360;2024-01-27T14:38:39;15.57;;;5.05;;
70796;SDS011;63842;52.144;5.360;2024-01-27T14:41:07;17.23;;;4.25;;
70796;SDS011;63842;52.144;5.360;2024-01-27T14:43:35;14.80;;;4.50;;
70796;SDS011;63842;52.144;5.360;2024-01-27T14:46:02;14.15;;;5.10;;
70796;SDS011;63842;52.144;5.360;2024-01-27T14:48:30;10.82;;;3.90;;
70796;SDS011;63842;52.144;5.360;2024-01-27T14:50:58;14.77;;;5.00;;
70796;SDS011;63842;52.144;5.360;2024-01-27T14:53:26;13.77;;;4.53;;